Time;durP1;ratioP1;P1;durP2;ratioP2;P2;SDS_P1;SDS_P2;PMS_P1;PMS_P2;Temp;Humidity;BMP_temperature;BMP_pressure;BME280_temperature;BME280_humidity;BME280_pressure;Samples;Min_cycle;Max_cycle;Signal;HPM_P1;HPM_P2
2024/02/19 00:01:58;;;;;;;3.88;1.30;;;;;;;;;;5103303;28;20051;-72
2024/02/19 00:04:29;;;;;;;5.47;1.10;;;;;;;;;;5104394;28;20032;-73
2024/02/19 00:07:00;;;;;;;4.07;1.02;;;;;;;;;;5103866;28;20048;-72
2024/02/19 00:09:31;;;;;;;2.85;1.00;;;;;;;;;;5101979;28;20055;-73
2024/02/19 00:12:01;;;;;;;3.08;0.95;;;;;;;;;;5103816;28;20047;-73
2024/02/19 00:14:32;;;;;;;1.40;0.85;;;;;;;;;;5103299;28;20047;-74
2024/02/19 00:17:03;;;;;;;1.88;0.85;;;;;;;;;;5102921;28;20051;-73
2024/02/19 00:19:33;;;;;;;2.38;0.63;;;;;;;;;;5112033;27;20040;-75
2024/02/19 00:22:15;;;;;;;2.67;0.90;;;;;;;;;;5118976;27;20134;-74
2024/02/19 00:24:46;;;;;;;2.35;0.85;;;;;;;;;;5124250;27;20035;-74
2024/02/19 00:27:17;;;;;;;0.90;0.65;;;;;;;;;;5123925;27;20529;-74
2024/02/19 00:29:48;;;;;;;1.73;1.15;;;;;;;;;;5116828;27;20058;-74
2024/02/19 00:32:18;;;;;;;3.78;0.60;;;;;;;;;;5115634;27;20425;-73
2024/02/19 00:34:48;;;;;;;1.17;0.65;;;;;;;;;;5120496;27;20507;-75
2024/02/19 00:37:18;;;;;;;1.65;0.70;;;;;;;;;;5113690;27;20039;-75
2024/02/19 00:39:48;;;;;;;1.25;0.65;;;;;;;;;;5114679;27;20058;-75
2024/02/19 00:42:18;;;;;;;1.50;0.70;;;;;;;;;;5111053;27;20039;-76
2024/02/19 00:44:50;;;;;;;6.22;0.90;;;;;;;;;;5111996;27;20042;-73
2024/02/19 00:47:20;;;;;;;0.85;0.65;;;;;;;;;;5112698;27;20047;-73
2024/02/19 00:49:50;;;;;;;1.90;0.55;;;;;;;;;;5108269;27;20047;-74
2024/02/19 00:52:21;;;;;;;0.98;0.50;;;;;;;;;;5102338;28;20506;-73
2024/02/19 00:58:30;;;;;;;1.48;0.65;;;;;;;;;;5102877;28;20059;-74
2024/02/19 01:01:04;;;;;;;0.98;0.80;;;;;;;;;;5103209;28;20039;-74
2024/02/19 01:03:35;;;;;;;1.30;0.43;;;;;;;;;;5103375;28;20051;-74
2024/02/19 01:06:06;;;;;;;1.02;0.57;;;;;;;;;;5100908;28;20063;-74
2024/02/19 01:08:37;;;;;;;7.00;1.05;;;;;;;;;;5102761;28;20055;-75
2024/02/19 01:11:08;;;;;;;3.65;1.25;;;;;;;;;;5101771;28;20060;-73
2024/02/19 01:13:39;;;;;;;2.20;0.75;;;;;;;;;;5100962;28;20054;-74
2024/02/19 01:19:46;;;;;;;3.92;0.60;;;;;;;;;;5099186;28;20058;-72
2024/02/19 01:22:17;;;;;;;1.92;0.63;;;;;;;;;;5101871;28;20055;-73
2024/02/19 01:24:49;;;;;;;1.42;0.70;;;;;;;;;;5101251;28;20509;-73
2024/02/19 01:27:19;;;;;;;1.38;0.52;;;;;;;;;;5102616;28;20051;-74
2024/02/19 01:29:50;;;;;;;2.17;0.75;;;;;;;;;;5102358;28;20050;-74
2024/02/19 01:32:22;;;;;;;2.10;0.68;;;;;;;;;;5101314;28;20055;-76
2024/02/19 01:34:52;;;;;;;4.60;0.80;;;;;;;;;;5101611;28;20569;-74
2024/02/19 01:37:23;;;;;;;2.60;1.02;;;;;;;;;;5102060;28;20051;-74
2024/02/19 01:39:53;;;;;;;1.05;0.60;;;;;;;;;;5101953;28;20059;-74
2024/02/19 01:42:23;;;;;;;2.97;1.00;;;;;;;;;;5102740;28;20513;-75
2024/02/19 01:44:54;;;;;;;1.60;0.70;;;;;;;;;;5102446;28;20047;-76
2024/02/19 01:47:25;;;;;;;3.05;0.85;;;;;;;;;;5102044;28;20055;-72
2024/02/19 01:49:56;;;;;;;3.08;1.23;;;;;;;;;;5102061;28;20051;-74
2024/02/19 01:52:28;;;;;;;4.63;0.88;;;;;;;;;;5101837;28;20528;-75
2024/02/19 01:54:58;;;;;;;3.65;0.95;;;;;;;;;;5101844;28;20063;-73
2024/02/19 01:57:28;;;;;;;3.63;0.90;;;;;;;;;;5102196;28;20055;-74
2024/02/19 02:00:10;;;;;;;0.80;0.70;;;;;;;;;;5102635;28;20047;-76
2024/02/19 02:02:42;;;;;;;4.03;0.70;;;;;;;;;;5102591;28;20078;-73
2024/02/19 02:05:13;;;;;;;1.13;0.60;;;;;;;;;;5102728;28;20502;-76
2024/02/19 02:07:45;;;;;;;2.17;0.70;;;;;;;;;;5101719;28;20621;-75
2024/02/19 02:10:18;;;;;;;2.72;0.50;;;;;;;;;;5101830;28;20044;-76
2024/02/19 02:12:48;;;;;;;1.73;0.98;;;;;;;;;;5102037;28;20055;-74
2024/02/19 02:15:19;;;;;;;1.17;0.70;;;;;;;;;;5102933;28;20055;-76
2024/02/19 02:17:50;;;;;;;5.43;0.98;;;;;;;;;;5102928;28;20056;-75
2024/02/19 02:20:20;;;;;;;3.33;0.57;;;;;;;;;;5101023;28;20438;-75
2024/02/19 02:22:51;;;;;;;1.90;0.70;;;;;;;;;;5101598;28;20678;-76
2024/02/19 02:25:22;;;;;;;1.27;0.70;;;;;;;;;;5104919;28;20537;-75
2024/02/19 02:27:53;;;;;;;2.10;1.27;;;;;;;;;;5105238;28;20083;-76
2024/02/19 02:30:24;;;;;;;1.10;0.73;;;;;;;;;;5105547;28;20055;-74
2024/02/19 02:32:55;;;;;;;1.83;0.90;;;;;;;;;;5105001;28;20055;-74
2024/02/19 02:35:25;;;;;;;1.65;0.68;;;;;;;;;;5104599;28;20051;-75
2024/02/19 02:37:56;;;;;;;2.58;0.77;;;;;;;;;;5105510;28;20051;-75
2024/02/19 02:40:27;;;;;;;4.88;0.90;;;;;;;;;;5105588;28;20047;-73
2024/02/19 02:42:57;;;;;;;1.70;0.65;;;;;;;;;;5105825;28;20426;-75
2024/02/19 02:45:27;;;;;;;1.30;0.90;;;;;;;;;;5105502;28;20066;-74
2024/02/19 02:47:58;;;;;;;1.45;0.80;;;;;;;;;;5105513;28;20058;-73
2024/02/19 02:50:29;;;;;;;2.20;1.25;;;;;;;;;;5106127;28;20486;-74
2024/02/19 02:53:01;;;;;;;1.20;0.70;;;;;;;;;;5105055;28;20062;-75
2024/02/19 02:55:31;;;;;;;1.83;0.80;;;;;;;;;;5105847;28;20048;-75
2024/02/19 02:58:02;;;;;;;1.27;1.10;;;;;;;;;;5104858;28;20066;-75
2024/02/19 03:00:44;;;;;;;1.48;0.68;;;;;;;;;;5104875;28;20056;-74
2024/02/19 03:03:14;;;;;;;3.28;0.90;;;;;;;;;;5105209;28;20110;-75
2024/02/19 03:05:44;;;;;;;1.60;0.90;;;;;;;;;;5104577;28;20498;-73
2024/02/19 03:08:15;;;;;;;1.95;0.95;;;;;;;;;;5105095;28;20066;-75
2024/02/19 03:10:45;;;;;;;2.58;0.70;;;;;;;;;;5105259;28;20098;-75
2024/02/19 03:13:17;;;;;;;2.70;0.95;;;;;;;;;;5105197;28;20047;-74
2024/02/19 03:15:49;;;;;;;0.98;0.90;;;;;;;;;;5105425;28;20040;-76
2024/02/19 03:18:20;;;;;;;1.85;0.90;;;;;;;;;;5105008;28;20071;-75
2024/02/19 03:21:07;;;;;;;2.13;0.75;;;;;;;;;;5105300;28;20043;-75
2024/02/19 03:23:39;;;;;;;4.25;0.95;;;;;;;;;;5105197;28;20046;-74
2024/02/19 03:26:09;;;;;;;2.58;0.80;;;;;;;;;;5105008;28;20048;-74
2024/02/19 03:28:39;;;;;;;1.35;0.80;;;;;;;;;;5104671;28;20047;-73
2024/02/19 03:31:09;;;;;;;0.60;0.60;;;;;;;;;;5104340;28;20067;-74
2024/02/19 03:33:40;;;;;;;2.57;1.33;;;;;;;;;;5104720;28;20043;-73
2024/02/19 03:36:11;;;;;;;1.13;0.85;;;;;;;;;;5104571;28;20087;-75
2024/02/19 03:38:42;;;;;;;2.50;0.80;;;;;;;;;;5105321;28;20044;-75
2024/02/19 03:41:13;;;;;;;3.17;1.00;;;;;;;;;;5104171;28;20060;-75
2024/02/19 03:43:44;;;;;;;1.65;1.13;;;;;;;;;;5104658;28;20044;-73
2024/02/19 03:46:16;;;;;;;1.90;0.90;;;;;;;;;;5105008;28;20055;-74
2024/02/19 03:48:46;;;;;;;1.75;0.90;;;;;;;;;;5103399;28;20051;-74
2024/02/19 03:51:17;;;;;;;2.72;1.10;;;;;;;;;;5104156;28;20055;-75
2024/02/19 03:53:47;;;;;;;1.95;1.02;;;;;;;;;;5103675;28;20063;-74
2024/02/19 03:56:28;;;;;;;10.57;1.05;;;;;;;;;;5104265;28;20066;-75
2024/02/19 03:58:58;;;;;;;1.80;0.85;;;;;;;;;;5103593;28;20058;-76
2024/02/19 04:01:28;;;;;;;4.55;1.40;;;;;;;;;;5103514;28;20052;-75
2024/02/19 04:03:59;;;;;;;3.25;0.80;;;;;;;;;;5103755;28;20047;-75
2024/02/19 04:06:30;;;;;;;3.97;1.27;;;;;;;;;;5104537;28;20047;-77
2024/02/19 04:09:00;;;;;;;2.15;1.00;;;;;;;;;;5103226;28;20855;-75
2024/02/19 04:11:30;;;;;;;4.50;1.10;;;;;;;;;;5104356;28;20055;-73
2024/02/19 04:14:00;;;;;;;2.67;1.27;;;;;;;;;;5104227;28;20047;-74
2024/02/19 04:16:31;;;;;;;1.98;1.05;;;;;;;;;;5102491;28;20051;-74
2024/02/19 04:19:02;;;;;;;5.32;1.15;;;;;;;;;;5103716;28;20052;-74
2024/02/19 04:21:32;;;;;;;5.82;1.42;;;;;;;;;;5103347;28;20067;-74
2024/02/19 04:24:02;;;;;;;2.47;1.00;;;;;;;;;;5103762;28;20040;-73
2024/02/19 04:26:32;;;;;;;2.55;1.00;;;;;;;;;;5104762;28;20580;-73
2024/02/19 04:29:04;;;;;;;1.48;1.00;;;;;;;;;;5103812;28;20051;-75
2024/02/19 04:31:35;;;;;;;8.68;1.15;;;;;;;;;;5103822;28;20058;-75
2024/02/19 04:34:06;;;;;;;6.22;1.30;;;;;;;;;;5103094;28;20052;-75
2024/02/19 04:36:37;;;;;;;2.63;1.10;;;;;;;;;;5102978;28;20047;-73
2024/02/19 04:39:07;;;;;;;5.70;1.02;;;;;;;;;;5102938;28;20043;-74
2024/02/19 04:41:39;;;;;;;6.07;1.10;;;;;;;;;;5103499;28;20054;-74
2024/02/19 04:44:09;;;;;;;3.63;0.90;;;;;;;;;;5103545;28;20046;-75
2024/02/19 04:46:38;;;;;;;6.80;0.90;;;;;;;;;;5101798;28;20054;-75
2024/02/19 04:49:09;;;;;;;6.13;1.23;;;;;;;;;;5102824;28;20129;-75
2024/02/19 04:51:44;;;;;;;1.30;0.80;;;;;;;;;;5102327;28;20054;-74
2024/02/19 04:54:15;;;;;;;5.57;1.00;;;;;;;;;;5102299;28;20062;-73
2024/02/19 04:56:46;;;;;;;2.42;1.10;;;;;;;;;;5102144;28;20060;-75
2024/02/19 04:59:16;;;;;;;2.17;1.02;;;;;;;;;;5101567;28;20769;-75
2024/02/19 05:01:47;;;;;;;1.38;0.85;;;;;;;;;;5103290;28;20044;-74
2024/02/19 05:04:19;;;;;;;1.30;0.85;;;;;;;;;;5101278;28;20074;-75
2024/02/19 05:06:49;;;;;;;0.95;0.82;;;;;;;;;;5102590;28;20047;-75
2024/02/19 05:09:20;;;;;;;2.70;0.93;;;;;;;;;;5103087;28;20056;-73
2024/02/19 05:11:50;;;;;;;0.50;0.50;;;;;;;;;;5103432;28;20047;-75
2024/02/19 05:14:22;;;;;;;1.20;0.52;;;;;;;;;;5103274;28;20607;-76
2024/02/19 05:16:52;;;;;;;4.07;0.77;;;;;;;;;;5103379;28;20054;-75
2024/02/19 05:19:22;;;;;;;2.33;0.68;;;;;;;;;;5103292;28;20071;-75
2024/02/19 05:21:54;;;;;;;6.80;0.90;;;;;;;;;;5101677;28;20514;-76
2024/02/19 05:24:25;;;;;;;2.53;0.77;;;;;;;;;;5102856;28;20047;-73
2024/02/19 05:28:07;;;;;;;2.25;0.80;;;;;;;;;;5102474;28;20055;-76
2024/02/19 05:34:17;;;;;;;0.75;0.73;;;;;;;;;;5101950;28;20052;-75
2024/02/19 05:36:47;;;;;;;2.08;0.80;;;;;;;;;;5102561;28;20052;-72
2024/02/19 05:39:18;;;;;;;0.85;0.77;;;;;;;;;;5101626;28;20058;-74
2024/02/19 05:41:48;;;;;;;5.47;0.70;;;;;;;;;;5102224;28;20399;-74
2024/02/19 05:44:18;;;;;;;0.80;0.60;;;;;;;;;;5103018;28;20055;-75
2024/02/19 05:46:48;;;;;;;3.67;0.70;;;;;;;;;;5102628;28;20039;-75
2024/02/19 05:49:18;;;;;;;1.38;0.70;;;;;;;;;;5103686;28;20055;-75
2024/02/19 05:51:48;;;;;;;0.90;0.68;;;;;;;;;;5102238;28;20055;-74
2024/02/19 05:54:21;;;;;;;2.53;0.70;;;;;;;;;;5099833;28;20051;-76
2024/02/19 05:56:53;;;;;;;3.55;0.70;;;;;;;;;;5102580;28;20075;-75
2024/02/19 05:59:23;;;;;;;2.35;0.77;;;;;;;;;;5104765;28;20055;-74
2024/02/19 06:05:33;;;;;;;0.45;0.45;;;;;;;;;;5059699;28;20060;-74
2024/02/19 06:08:05;;;;;;;2.08;0.77;;;;;;;;;;5082937;28;20075;-76
2024/02/19 06:10:36;;;;;;;0.98;0.70;;;;;;;;;;5083127;28;20059;-73
2024/02/19 06:13:33;;;;;;;4.90;1.00;;;;;;;;;;5082610;28;20515;-73
2024/02/19 06:16:04;;;;;;;2.50;0.57;;;;;;;;;;5082132;28;20067;-76
2024/02/19 06:18:34;;;;;;;1.08;0.73;;;;;;;;;;5083627;28;20617;-74
2024/02/19 06:21:05;;;;;;;2.15;0.70;;;;;;;;;;5082292;28;20059;-75
2024/02/19 06:23:35;;;;;;;2.28;0.80;;;;;;;;;;5083102;28;20510;-73
2024/02/19 06:26:06;;;;;;;4.82;1.10;;;;;;;;;;5066333;28;20202;-74
2024/02/19 06:28:36;;;;;;;4.57;0.90;;;;;;;;;;5082365;28;20040;-75
2024/02/19 06:31:07;;;;;;;5.93;0.50;;;;;;;;;;5082484;28;20518;-73
2024/02/19 06:33:37;;;;;;;0.85;0.50;;;;;;;;;;5082277;28;20529;-74
2024/02/19 06:36:07;;;;;;;1.05;0.40;;;;;;;;;;5096486;28;20067;-74
2024/02/19 06:38:38;;;;;;;2.67;0.60;;;;;;;;;;5106090;28;20048;-75
2024/02/19 06:41:08;;;;;;;1.48;0.80;;;;;;;;;;5105833;28;20059;-73
2024/02/19 06:43:38;;;;;;;2.95;0.70;;;;;;;;;;5105153;28;20043;-75
2024/02/19 06:46:11;;;;;;;4.97;0.70;;;;;;;;;;5106017;28;20540;-76
2024/02/19 06:48:42;;;;;;;1.92;0.73;;;;;;;;;;5105327;28;20044;-75
2024/02/19 06:51:15;;;;;;;3.65;0.80;;;;;;;;;;5105901;28;20051;-75
2024/02/19 06:53:46;;;;;;;0.93;0.60;;;;;;;;;;5104941;28;20043;-73
2024/02/19 06:56:17;;;;;;;2.95;0.70;;;;;;;;;;5105816;28;20059;-73
2024/02/19 06:58:47;;;;;;;2.78;0.73;;;;;;;;;;5105157;28;20133;-73
2024/02/19 07:01:18;;;;;;;3.83;0.80;;;;;;;;;;5105242;28;20055;-73
2024/02/19 07:03:49;;;;;;;0.50;0.40;;;;;;;;;;5105532;28;20414;-76
2024/02/19 07:06:42;;;;;;;3.00;0.50;;;;;;;;;;5104512;28;20502;-76
2024/02/19 07:09:22;;;;;;;4.90;0.85;;;;;;;;;;5104255;28;20063;-75
2024/02/19 07:11:53;;;;;;;1.52;0.63;;;;;;;;;;5106292;28;20506;-74
2024/02/19 07:14:23;;;;;;;1.52;0.50;;;;;;;;;;5105310;28;20494;-75
2024/02/19 07:16:54;;;;;;;2.42;0.80;;;;;;;;;;5105349;28;20153;-74
2024/02/19 07:19:24;;;;;;;0.68;0.50;;;;;;;;;;5104096;28;20418;-75
2024/02/19 07:21:54;;;;;;;2.03;0.68;;;;;;;;;;5104469;28;20544;-74
2024/02/19 07:24:26;;;;;;;4.82;0.60;;;;;;;;;;5102962;28;20056;-75
2024/02/19 07:26:58;;;;;;;2.50;0.60;;;;;;;;;;5104052;28;20039;-75
2024/02/19 07:29:28;;;;;;;1.55;0.40;;;;;;;;;;5105850;28;20075;-75
2024/02/19 07:31:58;;;;;;;0.50;0.45;;;;;;;;;;5104031;27;20530;-74
2024/02/19 07:34:29;;;;;;;1.85;0.50;;;;;;;;;;5104871;28;20048;-74
2024/02/19 07:37:00;;;;;;;2.35;0.55;;;;;;;;;;5104413;28;20054;-75
2024/02/19 07:39:32;;;;;;;0.52;0.40;;;;;;;;;;5103832;28;20055;-73
2024/02/19 07:42:03;;;;;;;4.32;1.05;;;;;;;;;;5104932;28;20059;-75
2024/02/19 07:44:33;;;;;;;3.75;0.52;;;;;;;;;;5104446;28;20036;-76
2024/02/19 07:47:05;;;;;;;1.30;0.80;;;;;;;;;;5103895;28;20055;-74
2024/02/19 07:49:35;;;;;;;1.38;0.30;;;;;;;;;;5104534;28;20414;-75
2024/02/19 07:52:06;;;;;;;1.25;0.38;;;;;;;;;;5104013;28;20529;-74
2024/02/19 07:54:36;;;;;;;1.45;0.52;;;;;;;;;;5103843;28;20056;-72
2024/02/19 07:57:07;;;;;;;3.53;0.60;;;;;;;;;;5102925;28;20055;-75
2024/02/19 07:59:38;;;;;;;3.92;0.40;;;;;;;;;;5103585;28;20059;-75
2024/02/19 08:02:10;;;;;;;1.02;0.43;;;;;;;;;;5104248;28;20615;-76
2024/02/19 08:04:41;;;;;;;1.52;0.45;;;;;;;;;;5104053;28;20050;-75
2024/02/19 08:07:12;;;;;;;0.40;0.38;;;;;;;;;;5104305;28;20043;-75
2024/02/19 08:09:43;;;;;;;1.70;0.43;;;;;;;;;;5103545;28;20055;-73
2024/02/19 08:12:13;;;;;;;4.15;0.63;;;;;;;;;;5102915;28;20047;-73
2024/02/19 08:14:43;;;;;;;5.80;0.75;;;;;;;;;;5103715;28;20502;-75
2024/02/19 08:17:14;;;;;;;4.03;0.70;;;;;;;;;;5104142;28;20044;-75
2024/02/19 08:19:45;;;;;;;1.73;0.57;;;;;;;;;;5104407;28;20503;-73
2024/02/19 08:22:15;;;;;;;1.38;0.60;;;;;;;;;;5103339;28;20070;-73
2024/02/19 08:24:45;;;;;;;0.70;0.38;;;;;;;;;;5102931;28;20048;-72
2024/02/19 08:27:15;;;;;;;2.45;0.52;;;;;;;;;;5104210;28;20051;-74
2024/02/19 08:29:45;;;;;;;3.60;0.93;;;;;;;;;;5104286;28;20062;-74
2024/02/19 08:32:17;;;;;;;3.58;0.40;;;;;;;;;;5103748;28;20051;-74
2024/02/19 08:34:48;;;;;;;1.77;0.50;;;;;;;;;;5103534;28;20062;-72
2024/02/19 08:37:18;;;;;;;1.23;0.35;;;;;;;;;;5103727;28;20053;-74
2024/02/19 08:39:48;;;;;;;0.75;0.50;;;;;;;;;;5103313;28;20051;-76
2024/02/19 08:42:42;;;;;;;1.02;0.40;;;;;;;;;;5103433;28;20520;-75
2024/02/19 08:45:12;;;;;;;0.50;0.40;;;;;;;;;;5103757;28;20069;-74
2024/02/19 08:47:42;;;;;;;4.68;0.55;;;;;;;;;;5102736;28;20056;-74
2024/02/19 08:50:13;;;;;;;5.35;0.50;;;;;;;;;;5103560;28;20410;-75
2024/02/19 08:52:45;;;;;;;3.85;0.65;;;;;;;;;;5103722;28;20043;-75
2024/02/19 08:55:16;;;;;;;0.80;0.45;;;;;;;;;;5102174;28;20059;-73
2024/02/19 08:57:47;;;;;;;1.25;0.70;;;;;;;;;;5103057;28;20058;-75
2024/02/19 09:00:17;;;;;;;6.28;0.57;;;;;;;;;;5102481;28;20048;-74
2024/02/19 09:02:47;;;;;;;2.28;0.50;;;;;;;;;;5102064;28;20510;-73
2024/02/19 09:05:22;;;;;;;0.93;0.52;;;;;;;;;;5102585;28;20051;-75
2024/02/19 09:07:53;;;;;;;1.52;0.50;;;;;;;;;;5103559;28;20086;-74
2024/02/19 09:10:51;;;;;;;2.17;0.60;;;;;;;;;;5103670;28;20804;-74
2024/02/19 09:13:22;;;;;;;6.10;0.70;;;;;;;;;;5102776;28;20043;-75
2024/02/19 09:15:52;;;;;;;4.03;0.65;;;;;;;;;;5102948;28;20748;-73
2024/02/19 09:18:23;;;;;;;1.00;0.57;;;;;;;;;;5103246;28;20495;-73
2024/02/19 09:20:53;;;;;;;5.10;0.70;;;;;;;;;;5122157;27;20055;-75
2024/02/19 09:23:23;;;;;;;4.47;1.05;;;;;;;;;;5122278;27;20051;-73
2024/02/19 09:25:57;;;;;;;2.47;0.50;;;;;;;;;;5123080;27;20043;-75
2024/02/19 09:28:27;;;;;;;2.15;0.57;;;;;;;;;;5122516;27;20057;-72
2024/02/19 09:30:57;;;;;;;9.10;0.75;;;;;;;;;;5123044;27;20058;-75
2024/02/19 09:33:27;;;;;;;1.45;0.50;;;;;;;;;;5122688;27;20051;-75
2024/02/19 09:35:58;;;;;;;6.68;1.10;;;;;;;;;;5122077;27;20055;-78
2024/02/19 09:38:32;;;;;;;6.43;0.90;;;;;;;;;;5122698;27;20047;-75
2024/02/19 09:41:05;;;;;;;3.60;0.80;;;;;;;;;;5123143;27;20051;-74
2024/02/19 09:43:35;;;;;;;3.30;0.77;;;;;;;;;;5121737;27;20062;-81
2024/02/19 09:46:10;;;;;;;4.00;0.60;;;;;;;;;;5121341;27;20585;-74
2024/02/19 09:48:41;;;;;;;;;;;;;;;;;;5123164;27;20055;-74
2024/02/19 09:51:25;;;;;;;5.97;3.70;;;;;;;;;;5122033;27;20052;-74
2024/02/19 09:54:10;;;;;;;4.57;1.15;;;;;;;;;;5122265;27;20047;-72
2024/02/19 09:56:45;;;;;;;6.88;1.92;;;;;;;;;;5123195;28;20059;-73
2024/02/19 09:59:16;;;;;;;5.65;1.70;;;;;;;;;;5122428;27;20129;-73
2024/02/19 10:01:46;;;;;;;6.35;1.45;;;;;;;;;;5121521;28;20043;-73
2024/02/19 10:04:17;;;;;;;2.30;1.10;;;;;;;;;;5122810;28;20050;-75
2024/02/19 10:06:47;;;;;;;6.22;1.50;;;;;;;;;;5121106;27;20506;-75
2024/02/19 10:09:19;;;;;;;2.78;1.30;;;;;;;;;;5122371;27;20062;-77
2024/02/19 10:11:50;;;;;;;3.67;1.10;;;;;;;;;;5122892;27;20039;-73
2024/02/19 10:14:20;;;;;;;7.40;1.63;;;;;;;;;;5122346;28;20054;-74
2024/02/19 10:16:51;;;;;;;6.88;1.48;;;;;;;;;;5122161;28;20050;-75
2024/02/19 10:19:22;;;;;;;3.30;0.98;;;;;;;;;;5122959;27;20054;-73
2024/02/19 10:21:54;;;;;;;4.60;1.05;;;;;;;;;;5121752;27;20062;-75
2024/02/19 10:24:26;;;;;;;3.35;0.80;;;;;;;;;;5122619;27;20062;-75
2024/02/19 10:26:58;;;;;;;1.30;0.70;;;;;;;;;;5123029;28;20062;-73
2024/02/19 10:29:30;;;;;;;6.50;0.68;;;;;;;;;;5122143;27;21058;-75
2024/02/19 10:32:01;;;;;;;4.38;0.80;;;;;;;;;;5122690;27;20524;-74
2024/02/19 10:38:16;;;;;;;1.75;0.47;;;;;;;;;;5122139;28;20390;-73
2024/02/19 10:40:47;;;;;;;4.30;0.73;;;;;;;;;;5121441;28;20604;-76
2024/02/19 10:43:28;;;;;;;2.58;0.70;;;;;;;;;;5121632;27;20051;-86
2024/02/19 10:45:59;;;;;;;7.72;1.20;;;;;;;;;;5125979;27;20055;-75
2024/02/19 10:48:29;;;;;;;4.50;1.10;;;;;;;;;;5126307;27;20383;-72
2024/02/19 10:51:04;;;;;;;4.60;0.70;;;;;;;;;;5124428;27;20051;-75
2024/02/19 10:53:37;;;;;;;3.85;0.70;;;;;;;;;;5125248;27;20047;-81
2024/02/19 10:56:17;;;;;;;9.35;1.30;;;;;;;;;;5124582;27;20702;-75
2024/02/19 10:59:20;;;;;;;1.02;0.82;;;;;;;;;;5124951;27;20059;-74
2024/02/19 11:01:50;;;;;;;2.08;0.60;;;;;;;;;;5126181;27;20047;-72
2024/02/19 11:04:23;;;;;;;1.73;0.63;;;;;;;;;;5125286;27;20059;-75
2024/02/19 11:06:59;;;;;;;3.72;0.68;;;;;;;;;;5126102;27;20047;-73
2024/02/19 11:09:34;;;;;;;4.32;0.77;;;;;;;;;;5125397;27;20047;-73
2024/02/19 11:12:05;;;;;;;1.95;0.50;;;;;;;;;;5126376;27;20047;-72
2024/02/19 11:14:36;;;;;;;8.43;1.00;;;;;;;;;;5125730;27;20055;-73
2024/02/19 11:17:09;;;;;;;1.02;0.50;;;;;;;;;;5119786;27;20050;-76
2024/02/19 11:19:40;;;;;;;1.60;0.55;;;;;;;;;;5115859;27;20039;-73
2024/02/19 11:22:16;;;;;;;0.40;0.40;;;;;;;;;;5113836;27;20039;-74
2024/02/19 11:24:46;;;;;;;4.40;2.13;;;;;;;;;;5121785;27;20047;-74
2024/02/19 11:27:16;;;;;;;7.32;1.33;;;;;;;;;;5124055;27;20051;-74
2024/02/19 11:29:47;;;;;;;1.40;0.57;;;;;;;;;;5125475;27;20051;-79
2024/02/19 11:32:18;;;;;;;3.00;0.63;;;;;;;;;;5124997;27;20517;-75
2024/02/19 11:34:51;;;;;;;1.83;0.40;;;;;;;;;;5125088;27;20840;-73
2024/02/19 11:37:21;;;;;;;6.30;0.63;;;;;;;;;;5125654;27;20058;-74
2024/02/19 11:39:53;;;;;;;3.15;0.80;;;;;;;;;;5123199;27;20059;-76
2024/02/19 11:42:26;;;;;;;3.53;0.60;;;;;;;;;;5125069;27;20053;-75
2024/02/19 11:44:58;;;;;;;1.50;0.52;;;;;;;;;;5123679;27;20517;-75
2024/02/19 11:47:29;;;;;;;0.65;0.47;;;;;;;;;;5123962;27;20062;-76
2024/02/19 11:50:05;;;;;;;2.20;0.85;;;;;;;;;;5125039;27;20051;-75
2024/02/19 11:52:36;;;;;;;2.42;0.80;;;;;;;;;;5125796;27;20051;-75
2024/02/19 11:55:20;;;;;;;1.85;0.65;;;;;;;;;;5125805;27;20051;-74
2024/02/19 11:57:54;;;;;;;4.13;0.77;;;;;;;;;;5123556;27;20050;-73
2024/02/19 12:00:25;;;;;;;3.55;0.60;;;;;;;;;;5123522;27;20057;-74
2024/02/19 12:06:38;;;;;;;2.45;0.65;;;;;;;;;;5124688;27;20043;-71
2024/02/19 12:09:09;;;;;;;1.85;0.90;;;;;;;;;;5124750;27;20043;-74
2024/02/19 12:11:41;;;;;;;6.35;0.88;;;;;;;;;;5124556;27;20657;-74
2024/02/19 12:14:17;;;;;;;9.05;8.13;;;;;;;;;;5124158;27;20053;-76
2024/02/19 12:16:47;;;;;;;4.18;0.82;;;;;;;;;;5123743;27;20047;-73
2024/02/19 12:20:05;;;;;;;5.72;0.60;;;;;;;;;;5124066;27;20416;-74
2024/02/19 12:22:40;;;;;;;0.90;0.38;;;;;;;;;;5124524;27;20049;-74
2024/02/19 12:25:12;;;;;;;2.88;0.80;;;;;;;;;;5124249;27;20043;-74
2024/02/19 12:27:42;;;;;;;1.35;0.50;;;;;;;;;;5123592;27;20051;-76
2024/02/19 12:30:12;;;;;;;1.00;0.60;;;;;;;;;;5124622;27;20058;-77
2024/02/19 12:32:45;;;;;;;1.33;0.40;;;;;;;;;;5125685;27;20054;-80
2024/02/19 12:35:19;;;;;;;1.30;0.52;;;;;;;;;;5123285;27;20058;-76
2024/02/19 12:37:50;;;;;;;1.25;0.50;;;;;;;;;;5123056;27;20059;-76
2024/02/19 12:40:23;;;;;;;1.77;0.73;;;;;;;;;;5124057;27;20058;-72
2024/02/19 12:42:54;;;;;;;0.52;0.45;;;;;;;;;;5123175;27;20062;-74
2024/02/19 12:45:24;;;;;;;2.40;0.80;;;;;;;;;;5124516;27;20046;-75
2024/02/19 12:48:00;;;;;;;1.20;0.43;;;;;;;;;;5122200;27;20497;-77
2024/02/19 12:50:30;;;;;;;2.03;0.40;;;;;;;;;;5123447;27;20413;-77
2024/02/19 12:53:03;;;;;;;1.63;0.57;;;;;;;;;;5121930;27;20059;-74
2024/02/19 12:55:34;;;;;;;2.47;0.45;;;;;;;;;;5123770;27;20058;-73
2024/02/19 12:58:05;;;;;;;2.67;0.68;;;;;;;;;;5124013;27;20512;-79
2024/02/19 13:00:40;;;;;;;2.38;0.63;;;;;;;;;;5123647;27;20051;-78
2024/02/19 13:03:10;;;;;;;2.10;0.43;;;;;;;;;;5122935;27;20047;-76
2024/02/19 13:05:49;;;;;;;4.78;0.60;;;;;;;;;;5123600;27;20047;-76
2024/02/19 13:08:20;;;;;;;3.03;0.50;;;;;;;;;;5122084;27;20062;-75
2024/02/19 13:11:08;;;;;;;2.47;0.50;;;;;;;;;;5123618;27;20051;-75
2024/02/19 13:13:40;;;;;;;3.78;0.35;;;;;;;;;;5124328;27;20039;-75
2024/02/19 13:16:14;;;;;;;0.30;0.30;;;;;;;;;;5122451;27;20047;-77
2024/02/19 13:18:49;;;;;;;1.40;0.55;;;;;;;;;;5121001;27;20058;-74
2024/02/19 13:21:20;;;;;;;27.38;1.27;;;;;;;;;;5123461;27;20054;-75
2024/02/19 13:23:50;;;;;;;15.00;1.27;;;;;;;;;;5122778;27;20413;-75
2024/02/19 13:26:22;;;;;;;4.78;0.68;;;;;;;;;;5123167;27;20047;-75
2024/02/19 13:28:51;;;;;;;4.80;1.10;;;;;;;;;;5123730;27;20069;-75
2024/02/19 13:31:22;;;;;;;13.68;1.38;;;;;;;;;;5122908;27;20050;-73
2024/02/19 13:33:52;;;;;;;4.07;0.45;;;;;;;;;;5122779;27;20054;-77
2024/02/19 13:36:25;;;;;;;9.43;1.02;;;;;;;;;;5123371;27;20235;-75
2024/02/19 13:38:58;;;;;;;12.57;0.98;;;;;;;;;;5122882;27;20054;-75
2024/02/19 13:41:28;;;;;;;12.23;1.00;;;;;;;;;;5121607;27;20051;-75
2024/02/19 13:43:59;;;;;;;6.38;0.70;;;;;;;;;;5122974;27;20054;-75
2024/02/19 13:46:34;;;;;;;4.55;1.00;;;;;;;;;;5122049;27;20055;-75
2024/02/19 13:49:04;;;;;;;3.58;0.82;;;;;;;;;;5121580;28;20062;-74
2024/02/19 13:51:34;;;;;;;1.15;0.70;;;;;;;;;;5122390;27;20055;-74
2024/02/19 13:54:06;;;;;;;2.10;0.60;;;;;;;;;;5123746;27;20043;-75
2024/02/19 13:56:39;;;;;;;5.65;0.90;;;;;;;;;;5121681;27;20601;-74
2024/02/19 13:59:10;;;;;;;3.83;0.80;;;;;;;;;;5122166;27;20536;-77
2024/02/19 14:01:41;;;;;;;4.35;0.98;;;;;;;;;;5123251;28;20047;-75
2024/02/19 14:04:13;;;;;;;3.35;0.75;;;;;;;;;;5121760;28;20779;-76
2024/02/19 14:06:45;;;;;;;1.98;0.90;;;;;;;;;;5123176;28;20058;-75
2024/02/19 14:09:21;;;;;;;1.90;1.00;;;;;;;;;;5122703;27;20043;-75
2024/02/19 14:11:51;;;;;;;1.75;0.70;;;;;;;;;;5122442;28;20501;-76
2024/02/19 14:14:23;;;;;;;2.97;0.80;;;;;;;;;;5122204;27;20051;-77
2024/02/19 14:16:55;;;;;;;4.63;0.88;;;;;;;;;;5121107;28;20526;-76
2024/02/19 14:19:26;;;;;;;4.93;2.00;;;;;;;;;;5122146;27;20070;-75
2024/02/19 14:22:02;;;;;;;2.33;0.80;;;;;;;;;;5126836;27;20047;-76
2024/02/19 14:24:32;;;;;;;2.28;0.55;;;;;;;;;;5125572;27;20054;-75
2024/02/19 14:27:04;;;;;;;1.73;0.60;;;;;;;;;;5126259;27;20047;-77
2024/02/19 14:29:35;;;;;;;2.70;0.90;;;;;;;;;;5126886;27;20050;-75
2024/02/19 14:32:05;;;;;;;2.70;1.10;;;;;;;;;;5124861;27;20066;-75
2024/02/19 14:34:36;;;;;;;3.15;1.05;;;;;;;;;;5125825;27;20054;-77
2024/02/19 14:37:08;;;;;;;2.33;0.70;;;;;;;;;;5127021;27;20047;-75
2024/02/19 14:39:39;;;;;;;4.28;0.73;;;;;;;;;;5125326;27;20513;-78
2024/02/19 14:42:10;;;;;;;1.35;0.80;;;;;;;;;;5123978;27;20417;-76
2024/02/19 14:44:41;;;;;;;3.47;0.90;;;;;;;;;;5125915;27;20527;-77
2024/02/19 14:47:12;;;;;;;1.85;0.90;;;;;;;;;;5126363;27;20050;-76
2024/02/19 14:50:40;;;;;;;1.38;1.00;;;;;;;;;;5124673;27;20054;-75
2024/02/19 14:53:10;;;;;;;2.05;0.70;;;;;;;;;;5126110;27;20043;-76
2024/02/19 14:55:41;;;;;;;7.20;1.95;;;;;;;;;;5124899;27;20066;-75
2024/02/19 14:58:11;;;;;;;3.47;0.70;;;;;;;;;;5125802;27;20047;-76
2024/02/19 15:00:44;;;;;;;3.25;0.60;;;;;;;;;;5126282;27;20691;-75
2024/02/19 15:03:18;;;;;;;2.40;1.02;;;;;;;;;;5123579;27;20530;-78
2024/02/19 15:06:51;;;;;;;3.55;0.70;;;;;;;;;;5125725;27;20050;-75
2024/02/19 15:09:23;;;;;;;2.08;0.70;;;;;;;;;;5126213;27;20046;-77
2024/02/19 15:11:54;;;;;;;4.07;0.98;;;;;;;;;;5125909;27;20049;-75
2024/02/19 15:14:24;;;;;;;4.38;0.82;;;;;;;;;;5126294;27;20055;-75
2024/02/19 15:16:55;;;;;;;2.47;0.70;;;;;;;;;;5125147;27;20055;-76
2024/02/19 15:19:26;;;;;;;3.03;0.70;;;;;;;;;;5124540;27;20055;-77
2024/02/19 15:21:56;;;;;;;3.33;0.90;;;;;;;;;;5124071;27;20065;-76
2024/02/19 15:24:26;;;;;;;2.17;0.90;;;;;;;;;;5125879;27;20489;-77
2024/02/19 15:26:56;;;;;;;2.55;0.77;;;;;;;;;;5124946;27;20063;-82
2024/02/19 15:29:26;;;;;;;2.70;0.52;;;;;;;;;;5124286;27;20405;-77
2024/02/19 15:31:56;;;;;;;1.63;0.80;;;;;;;;;;5124062;27;20525;-74
2024/02/19 15:34:27;;;;;;;1.77;0.70;;;;;;;;;;5124537;27;20502;-76
2024/02/19 15:36:59;;;;;;;4.78;0.82;;;;;;;;;;5124313;27;20066;-76